createdAt,value
2023-01-31T00:01:40.216Z,101289.88
2023-01-31T00:04:12.370Z,101296.84
2023-01-31T00:06:43.101Z,101292.34
2023-01-31T00:09:12.060Z,101289.63
2023-01-31T00:11:39.234Z,101294.03
2023-01-31T00:14:08.093Z,101300.09
2023-01-31T00:16:35.127Z,101293.94
2023-01-31T00:19:02.595Z,101293.91
2023-01-31T00:21:30.970Z,101296.53
2023-01-31T00:23:58.765Z,101308.78
2023-01-31T00:26:31.205Z,101309.69
2023-01-31T00:29:00.351Z,101314.84
2023-01-31T00:31:30.803Z,101311.31
2023-01-31T00:33:58.705Z,101308.63
2023-01-31T00:36:34.810Z,101309.50
2023-01-31T00:39:04.440Z,101314.78
2023-01-31T00:41:32.005Z,101315.66
2023-01-31T00:43:59.133Z,101325.41
2023-01-31T00:46:26.759Z,101330.81
2023-01-31T00:48:55.628Z,101329.19
2023-01-31T00:51:26.483Z,101336.25
2023-01-31T00:53:54.106Z,101334.59
2023-01-31T00:56:23.510Z,101332.06
2023-01-31T00:58:51.069Z,101336.56
2023-01-31T01:01:28.016Z,101340.16
2023-01-31T01:03:57.244Z,101342.88
2023-01-31T01:06:24.468Z,101348.19
2023-01-31T01:08:51.495Z,101341.22
2023-01-31T01:11:25.741Z,101333.47
2023-01-31T01:13:52.803Z,101342.19
2023-01-31T01:16:23.519Z,101343.09
2023-01-31T01:18:50.915Z,101359.72
2023-01-31T01:21:23.906Z,101351.81
2023-01-31T01:23:51.695Z,101363.25
2023-01-31T01:26:26.103Z,101370.41
2023-01-31T01:28:54.890Z,101373.13
2023-01-31T01:31:23.093Z,101386.28
2023-01-31T01:33:50.227Z,101390.72
2023-01-31T01:36:21.981Z,101381.94
2023-01-31T01:38:49.388Z,101381.97
2023-01-31T01:41:16.874Z,101385.56
2023-01-31T01:43:49.177Z,101382.09
2023-01-31T01:46:26.724Z,101387.44
2023-01-31T01:49:19.263Z,101398.97
2023-01-31T01:51:48.035Z,101393.72
2023-01-31T01:54:22.820Z,101396.47
2023-01-31T01:56:56.229Z,101386.91
2023-01-31T01:59:30.416Z,101390.41
2023-01-31T02:01:57.589Z,101403.47
2023-01-31T02:04:32.265Z,101409.50
2023-01-31T02:07:00.338Z,101407.72
2023-01-31T02:10:09.954Z,101400.66
2023-01-31T02:12:36.788Z,101404.00
2023-01-31T02:15:04.051Z,101395.09
2023-01-31T02:17:30.845Z,101415.19
2023-01-31T02:20:17.094Z,101396.75
2023-01-31T02:23:37.208Z,101405.38
2023-01-31T02:26:51.560Z,101391.22
2023-01-31T02:30:01.997Z,101388.50
2023-01-31T02:33:07.882Z,101401.50
2023-01-31T02:36:02.470Z,101399.72
2023-01-31T02:38:43.236Z,101397.00
2023-01-31T02:41:42.112Z,101410.25
2023-01-31T02:45:00.200Z,101421.75
2023-01-31T02:47:49.057Z,101428.88
2023-01-31T02:50:37.957Z,101423.72
2023-01-31T02:53:30.509Z,101435.28
2023-01-31T02:56:30.631Z,101437.22
2023-01-31T02:59:08.971Z,101439.97
2023-01-31T03:01:45.526Z,101436.56
2023-01-31T03:04:14.277Z,101434.94
2023-01-31T03:06:59.688Z,101429.75
2023-01-31T03:10:06.595Z,101433.22
2023-01-31T03:13:02.740Z,101436.75
2023-01-31T03:16:01.787Z,101429.75
2023-01-31T03:18:52.337Z,101423.56
2023-01-31T03:21:44.658Z,101417.41
2023-01-31T03:24:14.363Z,101423.53
2023-01-31T03:26:41.927Z,101426.16
2023-01-31T03:29:11.412Z,101416.50
2023-01-31T03:32:08.936Z,101410.25
2023-01-31T03:34:36.251Z,101407.41
2023-01-31T03:37:12.857Z,101406.38
2023-01-31T03:40:19.460Z,101408.78
2023-01-31T03:43:04.009Z,101405.13
2023-01-31T03:45:38.618Z,101396.97
2023-01-31T03:48:14.319Z,101403.88
2023-01-31T03:50:48.343Z,101402.94
2023-01-31T03:53:32.762Z,101393.22
2023-01-31T03:56:40.405Z,101395.81
2023-01-31T03:59:24.554Z,101393.13
2023-01-31T04:01:55.656Z,101395.75
2023-01-31T04:04:32.939Z,101391.44
2023-01-31T04:07:01.097Z,101393.25
2023-01-31T04:09:27.947Z,101382.78
2023-01-31T04:11:54.720Z,101389.84
2023-01-31T04:14:21.517Z,101380.22
2023-01-31T04:16:48.291Z,101385.53
2023-01-31T04:19:15.066Z,101387.31
2023-01-31T04:21:41.926Z,101392.59
2023-01-31T04:24:10.309Z,101386.47
2023-01-31T04:26:37.513Z,101390.88
2023-01-31T04:29:04.876Z,101390.88
2023-01-31T04:31:32.448Z,101386.47
2023-01-31T04:33:59.755Z,101383.81
2023-01-31T04:36:26.903Z,101414.47
2023-01-31T04:38:53.675Z,101403.00
2023-01-31T04:41:20.479Z,101410.88
2023-01-31T04:43:47.499Z,101406.41
2023-01-31T04:46:14.275Z,101401.91
2023-01-31T04:48:41.357Z,101402.66
2023-01-31T04:51:08.620Z,101410.50
2023-01-31T04:53:35.521Z,101400.81
2023-01-31T04:56:03.855Z,101413.03
2023-01-31T04:58:30.929Z,101414.78
2023-01-31T05:00:57.972Z,101415.75
2023-01-31T05:03:24.910Z,101421.03
2023-01-31T05:05:51.691Z,101420.25
2023-01-31T05:08:18.462Z,101410.63
2023-01-31T05:10:45.279Z,101410.69
2023-01-31T05:13:12.128Z,101416.00
2023-01-31T05:15:40.489Z,101415.25
2023-01-31T05:18:07.259Z,101405.63
2023-01-31T05:20:39.758Z,101406.59
2023-01-31T05:23:07.537Z,101410.16
2023-01-31T05:25:36.757Z,101404.91
2023-01-31T05:28:05.195Z,101404.97
2023-01-31T05:30:32.590Z,101400.69
2023-01-31T05:32:59.515Z,101390.09
2023-01-31T05:35:26.319Z,101399.78
2023-01-31T05:37:56.247Z,101395.34
2023-01-31T05:40:23.305Z,101402.34
2023-01-31T05:43:00.511Z,101414.69
2023-01-31T05:45:28.577Z,101401.56
2023-01-31T05:47:55.648Z,101398.09
2023-01-31T05:50:23.000Z,101403.44
2023-01-31T05:52:55.115Z,101391.22
2023-01-31T05:55:22.828Z,101398.34
2023-01-31T05:57:49.781Z,101401.91
2023-01-31T06:00:17.088Z,101400.22
2023-01-31T06:02:44.180Z,101395.88
2023-01-31T06:05:11.905Z,101392.38
2023-01-31T06:07:39.122Z,101393.34
2023-01-31T06:10:08.311Z,101390.72
2023-01-31T06:12:35.485Z,101374.94
2023-01-31T06:15:02.749Z,101385.50
2023-01-31T06:17:30.599Z,101396.13
2023-01-31T06:19:58.238Z,101398.75
2023-01-31T06:22:25.066Z,101389.16
2023-01-31T06:24:51.833Z,101397.13
2023-01-31T06:27:18.588Z,101389.28
2023-01-31T06:29:45.333Z,101391.97
2023-01-31T06:32:12.152Z,101380.59
2023-01-31T06:34:38.910Z,101384.16
2023-01-31T06:37:10.004Z,101383.34
2023-01-31T06:39:36.985Z,101364.91
2023-01-31T06:42:04.391Z,101368.53
2023-01-31T06:44:33.106Z,101367.63
2023-01-31T06:47:01.574Z,101362.44
2023-01-31T06:49:28.451Z,101355.47
2023-01-31T06:51:55.619Z,101351.19
2023-01-31T06:54:22.456Z,101348.59
2023-01-31T06:56:49.443Z,101347.78
2023-01-31T06:59:16.187Z,101345.19
2023-01-31T07:01:43.118Z,101347.00
2023-01-31T07:04:09.915Z,101338.22
2023-01-31T07:06:36.698Z,101332.09
2023-01-31T07:09:03.843Z,101337.41
2023-01-31T07:11:31.454Z,101333.91
2023-01-31T07:13:58.284Z,101332.19
2023-01-31T07:16:25.923Z,101320.84
2023-01-31T07:18:54.280Z,101309.47
2023-01-31T07:21:23.065Z,101294.56
2023-01-31T07:23:51.012Z,101301.66
2023-01-31T07:26:17.878Z,101294.63
2023-01-31T07:28:44.684Z,101280.66
2023-01-31T07:31:14.335Z,101282.47
2023-01-31T07:33:41.520Z,101271.91
2023-01-31T07:36:12.208Z,101272.81
2023-01-31T07:38:39.046Z,101274.56
2023-01-31T07:41:05.903Z,101264.06
2023-01-31T07:43:33.283Z,101249.13
2023-01-31T07:46:00.146Z,101242.13
2023-01-31T07:48:27.768Z,101249.25
2023-01-31T07:51:00.986Z,101250.19
2023-01-31T07:53:31.911Z,101231.78
2023-01-31T07:56:18.289Z,101234.56
2023-01-31T07:58:47.385Z,101237.25
2023-01-31T08:01:38.787Z,101238.28
2023-01-31T08:04:21.049Z,101239.28
2023-01-31T08:06:51.939Z,101236.72
2023-01-31T08:09:18.740Z,101229.81
2023-01-31T08:11:46.082Z,101218.47
2023-01-31T08:14:12.926Z,101226.41
2023-01-31T08:16:39.798Z,101216.78
2023-01-31T08:19:06.590Z,101205.44
2023-01-31T08:21:33.367Z,101212.56
2023-01-31T08:24:00.133Z,101209.16
2023-01-31T08:26:27.091Z,101211.91
2023-01-31T08:28:54.394Z,101209.38
2023-01-31T08:31:25.284Z,101205.06
2023-01-31T08:33:53.303Z,101200.72
2023-01-31T08:36:22.675Z,101198.16
2023-01-31T08:38:50.558Z,101193.88
2023-01-31T08:41:19.835Z,101191.34
2023-01-31T08:43:57.970Z,101179.16
2023-01-31T08:46:31.525Z,101175.72
2023-01-31T08:49:00.338Z,101181.09
2023-01-31T08:51:27.146Z,101175.84
2023-01-31T08:53:54.299Z,101171.50
2023-01-31T08:56:25.320Z,101159.19
2023-01-31T08:58:53.391Z,101138.13
2023-01-31T09:01:21.399Z,101150.50
2023-01-31T09:03:50.302Z,101143.47
2023-01-31T09:06:20.425Z,101153.22
2023-01-31T09:08:47.354Z,101158.56
2023-01-31T09:11:19.180Z,101151.53
2023-01-31T09:13:50.975Z,101142.78
2023-01-31T09:16:18.726Z,101146.31
2023-01-31T09:18:45.501Z,101144.53
2023-01-31T09:21:19.320Z,101132.19
2023-01-31T09:23:47.614Z,101139.19
2023-01-31T09:26:16.050Z,101143.56
2023-01-31T09:28:43.286Z,101153.25
2023-01-31T09:31:17.157Z,101149.69
2023-01-31T09:33:44.593Z,101135.53
2023-01-31T09:36:16.129Z,101148.69
2023-01-31T09:38:43.070Z,101135.41
2023-01-31T09:41:37.496Z,101125.66
2023-01-31T09:44:13.282Z,101118.53
2023-01-31T09:46:55.568Z,101135.13
2023-01-31T09:49:43.017Z,101129.72
2023-01-31T09:52:11.218Z,101122.56
2023-01-31T09:54:40.810Z,101101.34
2023-01-31T09:57:27.344Z,101103.97
2023-01-31T10:00:17.905Z,101095.03
2023-01-31T10:03:06.250Z,101101.19
2023-01-31T10:05:50.024Z,101097.59
2023-01-31T10:09:03.979Z,101092.28
2023-01-31T10:11:52.743Z,101086.97
2023-01-31T10:14:34.602Z,101073.78
2023-01-31T10:17:13.261Z,101081.69
2023-01-31T10:20:29.224Z,101070.28
2023-01-31T10:23:24.363Z,101074.75
2023-01-31T10:25:59.501Z,101072.13
2023-01-31T10:28:36.694Z,101053.69
2023-01-31T10:31:50.268Z,101061.63
2023-01-31T10:34:25.115Z,101057.25
2023-01-31T10:37:02.965Z,101036.16
2023-01-31T10:39:44.783Z,101034.41
2023-01-31T10:42:33.193Z,101019.47
2023-01-31T10:45:15.187Z,101025.63
2023-01-31T10:48:01.376Z,101018.63
2023-01-31T10:50:57.452Z,101007.19
2023-01-31T10:53:37.347Z,100995.75
2023-01-31T10:56:16.282Z,100987.88
2023-01-31T10:58:43.537Z,100982.59
2023-01-31T11:01:14.539Z,100987.91
2023-01-31T11:03:53.983Z,100973.88
2023-01-31T11:06:22.025Z,100983.56
2023-01-31T11:09:03.109Z,100986.25
2023-01-31T11:11:30.141Z,100984.50
2023-01-31T11:14:06.234Z,100959.06
2023-01-31T11:16:39.648Z,100958.22
2023-01-31T11:19:29.222Z,100957.41
2023-01-31T11:21:56.603Z,100948.66
2023-01-31T11:24:31.268Z,100955.75
2023-01-31T11:27:06.992Z,100954.88
2023-01-31T11:29:47.464Z,100950.53
2023-01-31T11:32:21.596Z,100940.00
2023-01-31T11:35:12.643Z,100945.28
2023-01-31T11:38:01.436Z,100938.25
2023-01-31T11:40:39.805Z,100938.25
2023-01-31T11:43:21.139Z,100924.19
2023-01-31T11:46:00.146Z,100929.50
2023-01-31T11:48:37.002Z,100917.16
2023-01-31T11:51:04.900Z,100915.41
2023-01-31T11:53:47.332Z,100901.31
2023-01-31T11:56:23.040Z,100893.41
2023-01-31T11:58:54.113Z,100894.25
2023-01-31T12:01:23.300Z,100899.50
2023-01-31T12:04:03.176Z,100886.31
2023-01-31T12:06:40.174Z,100891.59
2023-01-31T12:09:25.553Z,100887.22
2023-01-31T12:11:59.850Z,100892.50
2023-01-31T12:14:40.114Z,100885.47
2023-01-31T12:17:14.107Z,100867.84
2023-01-31T12:20:27.682Z,100859.06
2023-01-31T12:23:12.832Z,100848.50
2023-01-31T12:26:16.490Z,100852.03
2023-01-31T12:29:49.266Z,100839.72
2023-01-31T12:32:54.440Z,100850.28
2023-01-31T12:36:18.550Z,100859.06
2023-01-31T12:39:15.031Z,100857.34
2023-01-31T12:41:53.987Z,100867.03
2023-01-31T12:44:50.119Z,100850.34
2023-01-31T12:48:07.454Z,100858.28
2023-01-31T12:50:48.661Z,100852.09
2023-01-31T12:53:50.675Z,100860.97
2023-01-31T12:56:30.034Z,100859.16
2023-01-31T12:59:17.206Z,100869.72
2023-01-31T13:02:16.694Z,100872.31
2023-01-31T13:05:02.896Z,100871.47
2023-01-31T13:07:38.237Z,100874.91
2023-01-31T13:10:38.884Z,100869.63
2023-01-31T13:13:14.398Z,100867.88
2023-01-31T13:15:50.254Z,100868.72
2023-01-31T13:18:19.610Z,100866.09
2023-01-31T13:20:54.671Z,100860.81
2023-01-31T13:23:31.688Z,100848.50
2023-01-31T13:26:09.685Z,100855.47
2023-01-31T13:28:46.750Z,100859.88
2023-01-31T13:31:30.745Z,100858.09
2023-01-31T13:34:12.895Z,100848.41
2023-01-31T13:36:51.113Z,100858.06
2023-01-31T13:39:31.124Z,100860.72
2023-01-31T13:41:58.394Z,100837.81
2023-01-31T13:44:25.184Z,100840.44
2023-01-31T13:47:08.068Z,100832.53
2023-01-31T13:49:40.046Z,100833.44
2023-01-31T13:52:34.918Z,100836.91
2023-01-31T13:55:20.090Z,100836.91
2023-01-31T13:57:57.159Z,100832.53
2023-01-31T14:00:40.127Z,100829.94
2023-01-31T14:03:13.498Z,100810.59
2023-01-31T14:05:44.591Z,100813.22
2023-01-31T14:08:36.322Z,100820.31
2023-01-31T14:11:17.850Z,100825.56
2023-01-31T14:13:47.373Z,100825.59
2023-01-31T14:16:43.171Z,100815.03
2023-01-31T14:19:19.028Z,100825.63
2023-01-31T14:22:03.506Z,100820.38
2023-01-31T14:24:53.212Z,100821.25
2023-01-31T14:27:30.461Z,100822.13
2023-01-31T14:30:06.328Z,100815.13
2023-01-31T14:32:44.838Z,100815.13
2023-01-31T14:35:14.497Z,100822.19
2023-01-31T14:38:04.682Z,100808.16
2023-01-31T14:41:08.144Z,100804.63
2023-01-31T14:44:12.065Z,100800.22
2023-01-31T14:47:16.239Z,100808.16
2023-01-31T14:50:16.611Z,100792.31
2023-01-31T14:53:16.874Z,100805.56
2023-01-31T14:56:27.689Z,100806.44
2023-01-31T14:58:55.035Z,100798.53
2023-01-31T15:01:32.536Z,100816.16
2023-01-31T15:03:59.598Z,100810.00
2023-01-31T15:06:30.696Z,100815.31
2023-01-31T15:09:15.941Z,100805.66
2023-01-31T15:11:46.324Z,100796.88
2023-01-31T15:14:44.834Z,100795.09
2023-01-31T15:17:34.500Z,100786.38
2023-01-31T15:20:14.624Z,100787.22
2023-01-31T15:22:42.743Z,100782.84
2023-01-31T15:25:28.895Z,100767.94
2023-01-31T15:27:57.438Z,100790.78
2023-01-31T15:30:25.879Z,100788.19
2023-01-31T15:33:29.103Z,100790.84
2023-01-31T15:36:08.815Z,100793.50
2023-01-31T15:38:56.911Z,100790.00
2023-01-31T15:41:26.930Z,100790.00
2023-01-31T15:43:56.782Z,100785.59
2023-01-31T15:46:32.091Z,100788.25
2023-01-31T15:49:00.256Z,100787.38
2023-01-31T15:51:27.995Z,100783.00
2023-01-31T15:54:06.791Z,100776.84
2023-01-31T15:56:40.498Z,100777.75
2023-01-31T15:59:14.035Z,100793.59
2023-01-31T16:01:48.505Z,100795.34
2023-01-31T16:04:15.297Z,100799.72
2023-01-31T16:06:42.256Z,100798.88
2023-01-31T16:09:30.699Z,100805.00
2023-01-31T16:12:02.450Z,100815.59
2023-01-31T16:14:30.088Z,100815.56
2023-01-31T16:16:58.509Z,100822.59
2023-01-31T16:19:33.695Z,100827.91
2023-01-31T16:22:00.533Z,100826.13
2023-01-31T16:24:27.919Z,100810.28
2023-01-31T16:27:15.582Z,100806.72
2023-01-31T16:29:47.464Z,100814.66
2023-01-31T16:32:24.144Z,100819.06
2023-01-31T16:35:09.563Z,100830.47
2023-01-31T16:37:43.279Z,100846.31
2023-01-31T16:40:24.998Z,100831.34
2023-01-31T16:43:11.499Z,100833.09
2023-01-31T16:45:38.393Z,100845.41
2023-01-31T16:48:29.822Z,100834.84
2023-01-31T16:50:59.368Z,100838.34
2023-01-31T16:53:40.060Z,100838.34
2023-01-31T16:56:21.818Z,100829.50
2023-01-31T16:58:52.956Z,100834.78
2023-01-31T17:01:27.439Z,100833.91
2023-01-31T17:04:15.829Z,100836.53
2023-01-31T17:06:47.855Z,100849.69
2023-01-31T17:09:20.493Z,100839.97
2023-01-31T17:11:47.613Z,100846.13
2023-01-31T17:14:14.403Z,100830.25
2023-01-31T17:16:41.158Z,100829.34
2023-01-31T17:19:07.948Z,100832.84
2023-01-31T17:21:40.953Z,100838.13
2023-01-31T17:24:17.764Z,100832.81
2023-01-31T17:26:44.883Z,100831.91
2023-01-31T17:29:12.319Z,100838.03
2023-01-31T17:31:39.333Z,100843.28
2023-01-31T17:34:13.452Z,100839.72
2023-01-31T17:36:40.241Z,100837.00
2023-01-31T17:39:07.755Z,100839.63
2023-01-31T17:41:34.869Z,100837.84
2023-01-31T17:44:06.427Z,100837.00
2023-01-31T17:46:33.665Z,100836.13
2023-01-31T17:49:00.496Z,100833.44
2023-01-31T17:51:27.343Z,100828.16
2023-01-31T17:53:54.116Z,100821.06
2023-01-31T17:56:21.163Z,100836.00
2023-01-31T17:58:49.262Z,100836.03
2023-01-31T18:01:16.257Z,100848.38
2023-01-31T18:03:43.295Z,100847.53
2023-01-31T18:06:10.695Z,100850.19
2023-01-31T18:08:37.824Z,100842.31
2023-01-31T18:11:16.695Z,100851.13
2023-01-31T18:13:44.240Z,100844.06
2023-01-31T18:16:15.694Z,100853.78
2023-01-31T18:18:45.741Z,100850.31
2023-01-31T18:21:16.370Z,100845.06
2023-01-31T18:23:43.679Z,100850.38
2023-01-31T18:26:11.456Z,100857.41
2023-01-31T18:28:38.233Z,100862.72
2023-01-31T18:31:10.595Z,100867.13
2023-01-31T18:33:37.734Z,100876.88
2023-01-31T18:36:05.882Z,100879.53
2023-01-31T18:38:33.081Z,100865.44
2023-01-31T18:41:02.341Z,100861.09
2023-01-31T18:43:30.439Z,100863.72
2023-01-31T18:45:57.228Z,100866.41
2023-01-31T18:48:24.027Z,100864.66
2023-01-31T18:50:50.877Z,100870.81
2023-01-31T18:53:17.644Z,100870.81
2023-01-31T18:55:44.449Z,100876.97
2023-01-31T18:58:11.242Z,100866.41
2023-01-31T19:00:38.018Z,100875.28
2023-01-31T19:03:04.806Z,100879.69
2023-01-31T19:05:31.556Z,100891.13
2023-01-31T19:07:58.308Z,100892.03
2023-01-31T19:10:25.096Z,100887.59
2023-01-31T19:12:51.878Z,100888.47
2023-01-31T19:15:18.768Z,100902.59
2023-01-31T19:17:45.635Z,100895.56
2023-01-31T19:20:12.719Z,100898.22
2023-01-31T19:22:39.546Z,100889.41
2023-01-31T19:25:09.052Z,100892.00
2023-01-31T19:27:35.893Z,100886.75
2023-01-31T19:30:02.795Z,100901.69
2023-01-31T19:32:30.983Z,100904.31
2023-01-31T19:34:57.763Z,100913.97
2023-01-31T19:37:24.547Z,100900.75
2023-01-31T19:39:51.303Z,100903.38
2023-01-31T19:42:18.416Z,100911.31
2023-01-31T19:44:45.688Z,100898.09
2023-01-31T19:47:12.546Z,100922.75
2023-01-31T19:49:39.310Z,100913.94
2023-01-31T19:52:06.057Z,100910.41
2023-01-31T19:54:32.866Z,100914.78
2023-01-31T19:56:59.664Z,100910.41
2023-01-31T19:59:26.468Z,100920.06
2023-01-31T20:01:53.270Z,100920.06
2023-01-31T20:04:20.156Z,100921.84
2023-01-31T20:06:46.947Z,100921.81
2023-01-31T20:09:19.844Z,100930.63
2023-01-31T20:11:46.677Z,100925.28
2023-01-31T20:14:13.427Z,100927.88
2023-01-31T20:16:40.289Z,100931.31
2023-01-31T20:19:07.602Z,100924.22
2023-01-31T20:21:34.607Z,100916.25
2023-01-31T20:24:01.486Z,100916.19
2023-01-31T20:26:29.780Z,100921.41
2023-01-31T20:28:57.195Z,100924.88
2023-01-31T20:31:24.532Z,100928.31
2023-01-31T20:33:54.570Z,100923.84
2023-01-31T20:36:23.857Z,100922.03
2023-01-31T20:38:50.992Z,100920.25
2023-01-31T20:41:17.861Z,100920.22
2023-01-31T20:43:44.721Z,100921.91
2023-01-31T20:46:14.742Z,100935.94
2023-01-31T20:48:43.065Z,100916.53
2023-01-31T20:51:10.030Z,100928.78
2023-01-31T20:53:37.027Z,100912.94
2023-01-31T20:56:07.404Z,100915.53
2023-01-31T20:58:37.522Z,100912.88
2023-01-31T21:01:06.840Z,100911.03
2023-01-31T21:03:35.495Z,100915.41
2023-01-31T21:06:03.606Z,100916.25
2023-01-31T21:08:31.972Z,100904.81
2023-01-31T21:10:59.085Z,100919.72
2023-01-31T21:13:31.471Z,100909.16
2023-01-31T21:16:01.726Z,100915.28
2023-01-31T21:18:31.106Z,100915.25
2023-01-31T21:20:57.931Z,100920.50
2023-01-31T21:23:25.565Z,100918.75
2023-01-31T21:25:52.381Z,100930.13
2023-01-31T21:28:19.202Z,100930.09
2023-01-31T21:30:46.052Z,100923.94
2023-01-31T21:33:12.908Z,100924.81
2023-01-31T21:35:39.689Z,100936.22
2023-01-31T21:38:06.465Z,100928.31
2023-01-31T21:40:33.214Z,100936.22
2023-01-31T21:43:00.004Z,100917.78
2023-01-31T21:45:41.736Z,100915.13
2023-01-31T21:48:29.157Z,100924.75
2023-01-31T21:50:57.216Z,100910.69
2023-01-31T21:53:24.169Z,100920.31
2023-01-31T21:55:50.940Z,100929.09
2023-01-31T21:58:17.705Z,100922.09
2023-01-31T22:00:44.480Z,100919.47
2023-01-31T22:03:11.507Z,100926.50
2023-01-31T22:05:38.358Z,100923.84
2023-01-31T22:08:05.233Z,100924.72
2023-01-31T22:10:32.140Z,100931.78
2023-01-31T22:12:58.930Z,100929.09
2023-01-31T22:15:25.837Z,100936.13
2023-01-31T22:17:52.792Z,100930.84
2023-01-31T22:20:19.817Z,100941.41
2023-01-31T22:22:48.434Z,100929.94
2023-01-31T22:25:15.457Z,100929.03
2023-01-31T22:27:42.316Z,100923.75
2023-01-31T22:30:27.862Z,100926.38
2023-01-31T22:32:54.777Z,100925.47
2023-01-31T22:35:21.550Z,100937.75
2023-01-31T22:37:48.302Z,100944.81
2023-01-31T22:40:15.080Z,100937.72
2023-01-31T22:42:41.869Z,100936.88
2023-01-31T22:45:09.147Z,100935.97
2023-01-31T22:47:35.940Z,100931.59
2023-01-31T22:50:02.739Z,100917.53
2023-01-31T22:52:29.570Z,100928.06
2023-01-31T22:54:56.353Z,100921.06
2023-01-31T22:57:23.805Z,100922.81
2023-01-31T22:59:50.627Z,100919.28
2023-01-31T23:02:17.520Z,100918.38
2023-01-31T23:04:44.491Z,100940.34
2023-01-31T23:07:11.247Z,100912.22
2023-01-31T23:09:38.030Z,100913.06
2023-01-31T23:12:05.275Z,100924.50
2023-01-31T23:14:32.021Z,100927.16
2023-01-31T23:17:17.295Z,100928.00
2023-01-31T23:19:44.051Z,100919.16
2023-01-31T23:22:10.802Z,100923.53
2023-01-31T23:24:37.582Z,100922.66
2023-01-31T23:27:28.744Z,100927.88
2023-01-31T23:38:56.677Z,100924.41
2023-01-31T23:41:23.427Z,100909.50
2023-01-31T23:43:50.210Z,100907.78
2023-01-31T23:46:17.010Z,100920.09
2023-01-31T23:48:43.781Z,100914.91
2023-01-31T23:51:10.583Z,100907.03
2023-01-31T23:53:37.336Z,100898.25
2023-01-31T23:56:04.200Z,100902.69
2023-01-31T23:58:30.952Z,100901.84
